sensor_id;sensor_type;location;lat;lon;timestamp;temperature;humidity
18658;DHT22;9458;50.942;5.074;2023-03-31T00:01:00;12.10;99.90
18658;DHT22;9458;50.942;5.074;2023-03-31T00:03:30;12.10;99.90
18658;DHT22;9458;50.942;5.074;2023-03-31T00:06:01;12.10;99.90
18658;DHT22;9458;50.942;5.074;2023-03-31T00:08:31;12.10;99.90
18658;DHT22;9458;50.942;5.074;2023-03-31T00:11:07;12.10;99.90
18658;DHT22;9458;50.942;5.074;2023-03-31T00:13:42;12.10;99.90
18658;DHT22;9458;50.942;5.074;2023-03-31T00:16:10;12.10;99.90
18658;DHT22;9458;50.942;5.074;2023-03-31T00:18:39;12.10;99.90
18658;DHT22;9458;50.942;5.074;2023-03-31T00:21:20;12.10;99.90
18658;DHT22;9458;50.942;5.074;2023-03-31T00:24:00;12.10;99.90
18658;DHT22;9458;50.942;5.074;2023-03-31T00:26:37;12.10;99.90
18658;DHT22;9458;50.942;5.074;2023-03-31T00:29:10;12.10;99.90
18658;DHT22;9458;50.942;5.074;2023-03-31T00:31:41;12.20;99.90
18658;DHT22;9458;50.942;5.074;2023-03-31T00:34:09;12.20;99.90
18658;DHT22;9458;50.942;5.074;2023-03-31T00:36:38;12.20;99.90
18658;DHT22;9458;50.942;5.074;2023-03-31T00:39:18;12.20;99.90
18658;DHT22;9458;50.942;5.074;2023-03-31T00:41:48;12.20;99.90
18658;DHT22;9458;50.942;5.074;2023-03-31T00:44:20;12.20;99.90
18658;DHT22;9458;50.942;5.074;2023-03-31T00:46:54;12.20;99.90
18658;DHT22;9458;50.942;5.074;2023-03-31T00:49:34;12.20;99.90
18658;DHT22;9458;50.942;5.074;2023-03-31T00:52:10;12.20;99.90
18658;DHT22;9458;50.942;5.074;2023-03-31T00:54:42;12.20;99.90
18658;DHT22;9458;50.942;5.074;2023-03-31T00:57:16;12.20;99.90
18658;DHT22;9458;50.942;5.074;2023-03-31T00:59:49;12.20;99.90
18658;DHT22;9458;50.942;5.074;2023-03-31T01:02:19;12.20;99.90
18658;DHT22;9458;50.942;5.074;2023-03-31T01:04:55;12.20;99.90
18658;DHT22;9458;50.942;5.074;2023-03-31T01:07:30;12.20;99.90
18658;DHT22;9458;50.942;5.074;2023-03-31T01:10:01;12.20;99.90
18658;DHT22;9458;50.942;5.074;2023-03-31T01:12:32;12.20;99.90
18658;DHT22;9458;50.942;5.074;2023-03-31T01:15:03;12.20;99.90
18658;DHT22;9458;50.942;5.074;2023-03-31T01:17:32;12.20;99.90
18658;DHT22;9458;50.942;5.074;2023-03-31T01:20:09;12.20;99.90
18658;DHT22;9458;50.942;5.074;2023-03-31T01:23:19;12.20;99.90
18658;DHT22;9458;50.942;5.074;2023-03-31T01:26:16;12.20;99.90
18658;DHT22;9458;50.942;5.074;2023-03-31T01:28:54;12.10;99.90
18658;DHT22;9458;50.942;5.074;2023-03-31T01:35:05;12.10;99.90
18658;DHT22;9458;50.942;5.074;2023-03-31T01:38:09;12.10;99.90
18658;DHT22;9458;50.942;5.074;2023-03-31T01:43:36;12.10;99.90
18658;DHT22;9458;50.942;5.074;2023-03-31T01:46:22;12.20;99.90
18658;DHT22;9458;50.942;5.074;2023-03-31T01:48:59;12.10;99.90
18658;DHT22;9458;50.942;5.074;2023-03-31T01:51:32;12.20;99.90
18658;DHT22;9458;50.942;5.074;2023-03-31T01:54:07;12.10;99.90
18658;DHT22;9458;50.942;5.074;2023-03-31T01:56:42;12.10;99.90
18658;DHT22;9458;50.942;5.074;2023-03-31T01:59:17;12.10;99.90
18658;DHT22;9458;50.942;5.074;2023-03-31T02:01:50;12.10;99.90
18658;DHT22;9458;50.942;5.074;2023-03-31T02:04:33;12.10;99.90
18658;DHT22;9458;50.942;5.074;2023-03-31T02:07:04;12.10;99.90
18658;DHT22;9458;50.942;5.074;2023-03-31T02:09:39;12.10;99.90
18658;DHT22;9458;50.942;5.074;2023-03-31T02:12:11;12.10;99.90
18658;DHT22;9458;50.942;5.074;2023-03-31T02:14:42;12.00;99.90
18658;DHT22;9458;50.942;5.074;2023-03-31T02:17:15;12.10;99.90
18658;DHT22;9458;50.942;5.074;2023-03-31T02:19:48;12.00;99.90
18658;DHT22;9458;50.942;5.074;2023-03-31T02:22:20;12.10;99.90
18658;DHT22;9458;50.942;5.074;2023-03-31T02:24:50;12.10;99.90
18658;DHT22;9458;50.942;5.074;2023-03-31T02:27:23;12.00;99.90
18658;DHT22;9458;50.942;5.074;2023-03-31T02:29:53;12.10;99.90
18658;DHT22;9458;50.942;5.074;2023-03-31T02:32:23;12.00;99.90
18658;DHT22;9458;50.942;5.074;2023-03-31T02:34:51;12.00;99.90
18658;DHT22;9458;50.942;5.074;2023-03-31T02:37:20;12.00;99.90
18658;DHT22;9458;50.942;5.074;2023-03-31T02:39:51;12.00;99.90
18658;DHT22;9458;50.942;5.074;2023-03-31T02:42:21;12.00;99.90
18658;DHT22;9458;50.942;5.074;2023-03-31T02:44:49;12.00;99.90
18658;DHT22;9458;50.942;5.074;2023-03-31T02:47:17;12.00;99.90
18658;DHT22;9458;50.942;5.074;2023-03-31T02:49:49;12.00;99.90
18658;DHT22;9458;50.942;5.074;2023-03-31T02:52:44;11.90;99.90
18658;DHT22;9458;50.942;5.074;2023-03-31T02:55:42;12.00;99.90
18658;DHT22;9458;50.942;5.074;2023-03-31T03:01:20;11.90;99.90
18658;DHT22;9458;50.942;5.074;2023-03-31T03:03:57;11.90;99.90
18658;DHT22;9458;50.942;5.074;2023-03-31T03:06:36;11.90;99.90
18658;DHT22;9458;50.942;5.074;2023-03-31T03:09:16;11.90;99.90
18658;DHT22;9458;50.942;5.074;2023-03-31T03:11:53;11.90;99.90
18658;DHT22;9458;50.942;5.074;2023-03-31T03:14:30;11.90;99.90
18658;DHT22;9458;50.942;5.074;2023-03-31T03:17:04;11.90;99.90
18658;DHT22;9458;50.942;5.074;2023-03-31T03:19:33;11.90;99.90
18658;DHT22;9458;50.942;5.074;2023-03-31T03:22:00;11.80;99.90
18658;DHT22;9458;50.942;5.074;2023-03-31T03:24:27;11.80;99.90
18658;DHT22;9458;50.942;5.074;2023-03-31T03:26:59;11.80;99.90
18658;DHT22;9458;50.942;5.074;2023-03-31T03:29:28;11.70;99.90
18658;DHT22;9458;50.942;5.074;2023-03-31T03:31:56;11.70;99.90
18658;DHT22;9458;50.942;5.074;2023-03-31T03:34:26;11.70;99.90
18658;DHT22;9458;50.942;5.074;2023-03-31T03:36:55;11.70;99.90
18658;DHT22;9458;50.942;5.074;2023-03-31T03:39:23;11.70;99.90
18658;DHT22;9458;50.942;5.074;2023-03-31T03:41:51;11.70;99.90
18658;DHT22;9458;50.942;5.074;2023-03-31T03:44:19;11.70;99.90
18658;DHT22;9458;50.942;5.074;2023-03-31T03:46:51;11.70;99.90
18658;DHT22;9458;50.942;5.074;2023-03-31T03:49:19;11.70;99.90
18658;DHT22;9458;50.942;5.074;2023-03-31T03:51:46;11.80;99.90
18658;DHT22;9458;50.942;5.074;2023-03-31T03:54:14;11.80;99.90
18658;DHT22;9458;50.942;5.074;2023-03-31T03:56:42;11.80;99.90
18658;DHT22;9458;50.942;5.074;2023-03-31T03:59:11;11.80;99.90
18658;DHT22;9458;50.942;5.074;2023-03-31T04:01:39;11.80;99.90
18658;DHT22;9458;50.942;5.074;2023-03-31T04:04:09;11.80;99.90
18658;DHT22;9458;50.942;5.074;2023-03-31T04:06:36;11.80;99.90
18658;DHT22;9458;50.942;5.074;2023-03-31T04:09:04;11.80;99.90
18658;DHT22;9458;50.942;5.074;2023-03-31T04:11:32;11.80;99.90
18658;DHT22;9458;50.942;5.074;2023-03-31T04:14:00;11.80;99.90
18658;DHT22;9458;50.942;5.074;2023-03-31T04:16:28;11.80;99.90
18658;DHT22;9458;50.942;5.074;2023-03-31T04:18:56;11.80;99.90
18658;DHT22;9458;50.942;5.074;2023-03-31T04:21:26;11.80;99.90
18658;DHT22;9458;50.942;5.074;2023-03-31T04:23:55;11.80;99.90
18658;DHT22;9458;50.942;5.074;2023-03-31T04:26:29;11.80;99.90
18658;DHT22;9458;50.942;5.074;2023-03-31T04:29:04;11.80;99.90
18658;DHT22;9458;50.942;5.074;2023-03-31T04:31:32;11.80;99.90
18658;DHT22;9458;50.942;5.074;2023-03-31T04:34:06;11.70;99.90
18658;DHT22;9458;50.942;5.074;2023-03-31T04:36:41;11.80;99.90
18658;DHT22;9458;50.942;5.074;2023-03-31T04:39:12;11.80;99.90
18658;DHT22;9458;50.942;5.074;2023-03-31T04:41:40;11.70;99.90
18658;DHT22;9458;50.942;5.074;2023-03-31T04:44:08;11.80;99.90
18658;DHT22;9458;50.942;5.074;2023-03-31T04:46:36;11.80;99.90
18658;DHT22;9458;50.942;5.074;2023-03-31T04:49:03;11.70;99.90
18658;DHT22;9458;50.942;5.074;2023-03-31T04:51:31;11.80;99.90
18658;DHT22;9458;50.942;5.074;2023-03-31T04:54:00;11.70;99.90
18658;DHT22;9458;50.942;5.074;2023-03-31T04:56:28;11.70;99.90
18658;DHT22;9458;50.942;5.074;2023-03-31T04:58:56;11.70;99.90
18658;DHT22;9458;50.942;5.074;2023-03-31T05:01:24;11.60;99.90
18658;DHT22;9458;50.942;5.074;2023-03-31T05:03:52;11.60;99.90
18658;DHT22;9458;50.942;5.074;2023-03-31T05:06:20;11.60;99.90
18658;DHT22;9458;50.942;5.074;2023-03-31T05:08:48;11.60;99.90
18658;DHT22;9458;50.942;5.074;2023-03-31T05:11:17;11.60;99.90
18658;DHT22;9458;50.942;5.074;2023-03-31T05:13:45;11.60;99.90
18658;DHT22;9458;50.942;5.074;2023-03-31T05:16:14;11.60;99.90
18658;DHT22;9458;50.942;5.074;2023-03-31T05:18:44;11.60;99.90
18658;DHT22;9458;50.942;5.074;2023-03-31T05:21:15;11.60;99.90
18658;DHT22;9458;50.942;5.074;2023-03-31T05:23:43;11.60;99.90
18658;DHT22;9458;50.942;5.074;2023-03-31T05:26:12;11.60;99.90
18658;DHT22;9458;50.942;5.074;2023-03-31T05:28:43;11.60;99.90
18658;DHT22;9458;50.942;5.074;2023-03-31T05:31:11;11.60;99.90
18658;DHT22;9458;50.942;5.074;2023-03-31T05:33:39;11.60;99.90
18658;DHT22;9458;50.942;5.074;2023-03-31T05:36:08;11.60;99.90
18658;DHT22;9458;50.942;5.074;2023-03-31T05:38:36;11.70;99.90
18658;DHT22;9458;50.942;5.074;2023-03-31T05:41:04;11.60;99.90
18658;DHT22;9458;50.942;5.074;2023-03-31T05:43:34;11.60;99.90
18658;DHT22;9458;50.942;5.074;2023-03-31T05:46:03;11.60;99.90
18658;DHT22;9458;50.942;5.074;2023-03-31T05:48:31;11.60;99.90
18658;DHT22;9458;50.942;5.074;2023-03-31T05:51:00;11.70;99.90
18658;DHT22;9458;50.942;5.074;2023-03-31T05:53:28;11.60;99.90
18658;DHT22;9458;50.942;5.074;2023-03-31T05:55:56;11.70;99.90
18658;DHT22;9458;50.942;5.074;2023-03-31T05:58:25;11.70;99.90
18658;DHT22;9458;50.942;5.074;2023-03-31T06:01:00;11.70;99.90
18658;DHT22;9458;50.942;5.074;2023-03-31T06:03:39;11.70;99.90
18658;DHT22;9458;50.942;5.074;2023-03-31T06:06:12;11.70;99.90
18658;DHT22;9458;50.942;5.074;2023-03-31T06:08:48;11.70;99.90
18658;DHT22;9458;50.942;5.074;2023-03-31T06:11:17;11.70;99.90
18658;DHT22;9458;50.942;5.074;2023-03-31T06:13:46;11.70;99.90
18658;DHT22;9458;50.942;5.074;2023-03-31T06:16:15;11.70;99.90
18658;DHT22;9458;50.942;5.074;2023-03-31T06:18:45;11.80;99.90
18658;DHT22;9458;50.942;5.074;2023-03-31T06:21:14;11.80;99.90
18658;DHT22;9458;50.942;5.074;2023-03-31T06:23:43;11.80;99.90
18658;DHT22;9458;50.942;5.074;2023-03-31T06:26:13;11.80;99.90
18658;DHT22;9458;50.942;5.074;2023-03-31T06:28:41;11.80;99.90
18658;DHT22;9458;50.942;5.074;2023-03-31T06:31:13;11.90;99.90
18658;DHT22;9458;50.942;5.074;2023-03-31T06:33:42;11.80;99.90
18658;DHT22;9458;50.942;5.074;2023-03-31T06:36:15;11.80;99.90
18658;DHT22;9458;50.942;5.074;2023-03-31T06:38:43;11.90;99.90
18658;DHT22;9458;50.942;5.074;2023-03-31T06:41:13;11.90;99.90
18658;DHT22;9458;50.942;5.074;2023-03-31T06:43:41;11.90;99.90
18658;DHT22;9458;50.942;5.074;2023-03-31T06:46:10;11.90;99.90
18658;DHT22;9458;50.942;5.074;2023-03-31T06:48:39;11.90;99.90
18658;DHT22;9458;50.942;5.074;2023-03-31T06:51:07;11.90;99.90
18658;DHT22;9458;50.942;5.074;2023-03-31T06:53:38;11.90;99.90
18658;DHT22;9458;50.942;5.074;2023-03-31T06:56:06;11.90;99.90
18658;DHT22;9458;50.942;5.074;2023-03-31T06:58:34;11.90;99.90
18658;DHT22;9458;50.942;5.074;2023-03-31T07:01:02;12.00;99.90
18658;DHT22;9458;50.942;5.074;2023-03-31T07:03:31;12.00;99.90
18658;DHT22;9458;50.942;5.074;2023-03-31T07:05:59;12.00;99.90
18658;DHT22;9458;50.942;5.074;2023-03-31T07:08:26;12.00;99.90
18658;DHT22;9458;50.942;5.074;2023-03-31T07:10:58;12.00;99.90
18658;DHT22;9458;50.942;5.074;2023-03-31T07:13:27;12.10;99.90
18658;DHT22;9458;50.942;5.074;2023-03-31T07:15:54;12.10;99.90
18658;DHT22;9458;50.942;5.074;2023-03-31T07:18:23;12.10;99.90
18658;DHT22;9458;50.942;5.074;2023-03-31T07:20:57;12.10;99.90
18658;DHT22;9458;50.942;5.074;2023-03-31T07:23:25;12.20;99.90
18658;DHT22;9458;50.942;5.074;2023-03-31T07:25:58;12.20;99.90
18658;DHT22;9458;50.942;5.074;2023-03-31T07:28:27;12.20;99.90
18658;DHT22;9458;50.942;5.074;2023-03-31T07:30:56;12.30;99.90
18658;DHT22;9458;50.942;5.074;2023-03-31T07:33:24;12.40;99.90
18658;DHT22;9458;50.942;5.074;2023-03-31T07:35:52;12.50;99.90
18658;DHT22;9458;50.942;5.074;2023-03-31T07:38:20;12.60;99.90
18658;DHT22;9458;50.942;5.074;2023-03-31T07:40:47;12.70;99.90
18658;DHT22;9458;50.942;5.074;2023-03-31T07:43:18;12.90;99.90
18658;DHT22;9458;50.942;5.074;2023-03-31T07:45:46;13.30;99.90
18658;DHT22;9458;50.942;5.074;2023-03-31T07:48:13;13.50;99.90
18658;DHT22;9458;50.942;5.074;2023-03-31T07:50:41;13.50;99.90
18658;DHT22;9458;50.942;5.074;2023-03-31T07:53:09;13.40;99.90
18658;DHT22;9458;50.942;5.074;2023-03-31T07:55:39;13.30;99.90
18658;DHT22;9458;50.942;5.074;2023-03-31T07:58:07;13.20;99.90
18658;DHT22;9458;50.942;5.074;2023-03-31T08:00:39;13.20;99.90
18658;DHT22;9458;50.942;5.074;2023-03-31T08:03:07;13.10;99.90
18658;DHT22;9458;50.942;5.074;2023-03-31T08:05:40;13.00;99.90
18658;DHT22;9458;50.942;5.074;2023-03-31T08:08:10;12.90;99.90
18658;DHT22;9458;50.942;5.074;2023-03-31T08:10:38;12.90;99.90
18658;DHT22;9458;50.942;5.074;2023-03-31T08:13:06;12.90;99.90
18658;DHT22;9458;50.942;5.074;2023-03-31T08:15:33;12.90;99.90
18658;DHT22;9458;50.942;5.074;2023-03-31T08:18:04;12.90;99.90
18658;DHT22;9458;50.942;5.074;2023-03-31T08:20:32;12.90;99.90
18658;DHT22;9458;50.942;5.074;2023-03-31T08:23:00;12.90;99.90
18658;DHT22;9458;50.942;5.074;2023-03-31T08:25:32;12.80;99.90
18658;DHT22;9458;50.942;5.074;2023-03-31T08:28:00;12.80;99.90
18658;DHT22;9458;50.942;5.074;2023-03-31T08:30:28;12.90;99.90
18658;DHT22;9458;50.942;5.074;2023-03-31T08:32:56;12.80;99.90
18658;DHT22;9458;50.942;5.074;2023-03-31T08:35:28;12.90;99.90
18658;DHT22;9458;50.942;5.074;2023-03-31T08:37:55;13.00;99.90
18658;DHT22;9458;50.942;5.074;2023-03-31T08:40:25;13.00;99.90
18658;DHT22;9458;50.942;5.074;2023-03-31T08:42:56;13.10;99.90
18658;DHT22;9458;50.942;5.074;2023-03-31T08:45:28;13.10;99.90
18658;DHT22;9458;50.942;5.074;2023-03-31T08:48:01;13.10;99.90
18658;DHT22;9458;50.942;5.074;2023-03-31T08:50:34;13.20;99.90
18658;DHT22;9458;50.942;5.074;2023-03-31T08:53:05;13.20;99.90
18658;DHT22;9458;50.942;5.074;2023-03-31T08:55:41;13.20;99.90
18658;DHT22;9458;50.942;5.074;2023-03-31T08:58:17;13.20;99.90
18658;DHT22;9458;50.942;5.074;2023-03-31T09:00:53;13.10;99.90
18658;DHT22;9458;50.942;5.074;2023-03-31T09:03:27;13.20;99.90
18658;DHT22;9458;50.942;5.074;2023-03-31T09:06:01;13.20;99.90
18658;DHT22;9458;50.942;5.074;2023-03-31T09:08:34;13.30;99.90
18658;DHT22;9458;50.942;5.074;2023-03-31T09:11:12;13.40;99.90
18658;DHT22;9458;50.942;5.074;2023-03-31T09:16:49;13.60;99.90
18658;DHT22;9458;50.942;5.074;2023-03-31T09:19:27;13.70;99.90
18658;DHT22;9458;50.942;5.074;2023-03-31T09:22:02;13.80;99.90
18658;DHT22;9458;50.942;5.074;2023-03-31T09:24:34;13.80;99.90
18658;DHT22;9458;50.942;5.074;2023-03-31T09:27:06;13.80;99.90
18658;DHT22;9458;50.942;5.074;2023-03-31T09:29:41;13.80;99.90
18658;DHT22;9458;50.942;5.074;2023-03-31T09:32:14;13.90;99.90
18658;DHT22;9458;50.942;5.074;2023-03-31T09:34:44;13.90;99.90
18658;DHT22;9458;50.942;5.074;2023-03-31T09:37:14;14.00;99.90
18658;DHT22;9458;50.942;5.074;2023-03-31T09:39:42;14.10;99.90
18658;DHT22;9458;50.942;5.074;2023-03-31T09:42:12;14.30;99.90
18658;DHT22;9458;50.942;5.074;2023-03-31T09:44:42;14.40;99.90
18658;DHT22;9458;50.942;5.074;2023-03-31T09:47:19;14.50;99.90
18658;DHT22;9458;50.942;5.074;2023-03-31T09:49:48;14.40;99.90
18658;DHT22;9458;50.942;5.074;2023-03-31T09:52:25;14.30;99.90
18658;DHT22;9458;50.942;5.074;2023-03-31T09:54:57;14.30;99.90
18658;DHT22;9458;50.942;5.074;2023-03-31T09:57:27;14.20;99.90
18658;DHT22;9458;50.942;5.074;2023-03-31T10:00:03;14.20;99.90
18658;DHT22;9458;50.942;5.074;2023-03-31T10:02:42;14.10;99.90
18658;DHT22;9458;50.942;5.074;2023-03-31T10:05:25;14.10;99.90
18658;DHT22;9458;50.942;5.074;2023-03-31T10:08:23;14.20;99.90
18658;DHT22;9458;50.942;5.074;2023-03-31T10:10:54;14.40;99.90
18658;DHT22;9458;50.942;5.074;2023-03-31T10:13:24;14.60;99.90
18658;DHT22;9458;50.942;5.074;2023-03-31T10:16:00;14.70;99.90
18658;DHT22;9458;50.942;5.074;2023-03-31T10:18:32;14.90;99.90
18658;DHT22;9458;50.942;5.074;2023-03-31T10:21:03;15.00;99.90
18658;DHT22;9458;50.942;5.074;2023-03-31T10:23:34;15.10;99.90
18658;DHT22;9458;50.942;5.074;2023-03-31T10:26:04;15.20;99.90
18658;DHT22;9458;50.942;5.074;2023-03-31T10:28:33;15.20;99.90
18658;DHT22;9458;50.942;5.074;2023-03-31T10:31:03;15.10;99.90
18658;DHT22;9458;50.942;5.074;2023-03-31T10:33:39;15.00;99.90
18658;DHT22;9458;50.942;5.074;2023-03-31T10:36:16;14.90;99.90
18658;DHT22;9458;50.942;5.074;2023-03-31T10:38:48;14.90;99.90
18658;DHT22;9458;50.942;5.074;2023-03-31T10:41:18;14.80;99.90
18658;DHT22;9458;50.942;5.074;2023-03-31T10:43:49;14.90;99.90
18658;DHT22;9458;50.942;5.074;2023-03-31T10:46:19;15.00;99.90
18658;DHT22;9458;50.942;5.074;2023-03-31T10:48:47;15.00;99.90
18658;DHT22;9458;50.942;5.074;2023-03-31T10:51:21;15.00;99.90
18658;DHT22;9458;50.942;5.074;2023-03-31T10:54:00;15.10;99.90
18658;DHT22;9458;50.942;5.074;2023-03-31T10:56:35;15.20;99.90
18658;DHT22;9458;50.942;5.074;2023-03-31T10:59:22;15.10;99.90
18658;DHT22;9458;50.942;5.074;2023-03-31T11:02:10;15.10;99.90
18658;DHT22;9458;50.942;5.074;2023-03-31T11:04:57;15.10;99.90
18658;DHT22;9458;50.942;5.074;2023-03-31T11:07:36;15.10;99.90
18658;DHT22;9458;50.942;5.074;2023-03-31T11:10:26;15.10;99.90
18658;DHT22;9458;50.942;5.074;2023-03-31T11:12:59;15.10;99.90
18658;DHT22;9458;50.942;5.074;2023-03-31T11:15:32;15.20;99.90
18658;DHT22;9458;50.942;5.074;2023-03-31T11:18:15;15.20;99.90
18658;DHT22;9458;50.942;5.074;2023-03-31T11:20:53;15.20;99.90
18658;DHT22;9458;50.942;5.074;2023-03-31T11:23:26;15.20;99.90
18658;DHT22;9458;50.942;5.074;2023-03-31T11:26:06;15.30;99.90
18658;DHT22;9458;50.942;5.074;2023-03-31T11:28:54;15.30;99.90
18658;DHT22;9458;50.942;5.074;2023-03-31T11:31:33;15.30;99.90
18658;DHT22;9458;50.942;5.074;2023-03-31T11:34:36;15.20;99.90
18658;DHT22;9458;50.942;5.074;2023-03-31T11:37:25;15.20;99.90
18658;DHT22;9458;50.942;5.074;2023-03-31T11:40:09;15.20;99.90
18658;DHT22;9458;50.942;5.074;2023-03-31T11:42:45;15.00;99.90
18658;DHT22;9458;50.942;5.074;2023-03-31T11:45:17;14.90;99.90
18658;DHT22;9458;50.942;5.074;2023-03-31T11:47:55;14.90;99.90
18658;DHT22;9458;50.942;5.074;2023-03-31T11:50:30;15.00;99.90
18658;DHT22;9458;50.942;5.074;2023-03-31T11:53:01;15.10;99.90
18658;DHT22;9458;50.942;5.074;2023-03-31T11:55:30;15.20;99.90
18658;DHT22;9458;50.942;5.074;2023-03-31T11:58:04;15.30;99.90
18658;DHT22;9458;50.942;5.074;2023-03-31T12:00:36;15.10;99.90
18658;DHT22;9458;50.942;5.074;2023-03-31T12:03:11;15.20;99.90
18658;DHT22;9458;50.942;5.074;2023-03-31T12:05:42;15.10;99.90
18658;DHT22;9458;50.942;5.074;2023-03-31T12:08:14;15.10;99.90
18658;DHT22;9458;50.942;5.074;2023-03-31T12:10:46;15.10;99.90
18658;DHT22;9458;50.942;5.074;2023-03-31T12:13:42;15.20;99.90
18658;DHT22;9458;50.942;5.074;2023-03-31T12:16:13;15.20;99.90
18658;DHT22;9458;50.942;5.074;2023-03-31T12:18:46;15.20;99.90
18658;DHT22;9458;50.942;5.074;2023-03-31T12:21:18;15.20;99.90
18658;DHT22;9458;50.942;5.074;2023-03-31T12:23:49;15.30;99.90
18658;DHT22;9458;50.942;5.074;2023-03-31T12:26:32;15.40;99.90
18658;DHT22;9458;50.942;5.074;2023-03-31T12:29:20;15.50;99.90
18658;DHT22;9458;50.942;5.074;2023-03-31T12:31:51;15.60;99.90
18658;DHT22;9458;50.942;5.074;2023-03-31T12:34:21;15.60;99.90
18658;DHT22;9458;50.942;5.074;2023-03-31T12:37:01;15.50;99.90
18658;DHT22;9458;50.942;5.074;2023-03-31T12:39:42;15.40;99.90
18658;DHT22;9458;50.942;5.074;2023-03-31T12:42:28;15.30;99.90
18658;DHT22;9458;50.942;5.074;2023-03-31T12:45:06;15.30;99.90
18658;DHT22;9458;50.942;5.074;2023-03-31T12:48:03;15.20;99.90
18658;DHT22;9458;50.942;5.074;2023-03-31T12:50:43;15.10;99.90
18658;DHT22;9458;50.942;5.074;2023-03-31T12:53:17;14.90;99.90
18658;DHT22;9458;50.942;5.074;2023-03-31T12:55:52;14.70;99.90
18658;DHT22;9458;50.942;5.074;2023-03-31T12:58:40;14.60;99.90
18658;DHT22;9458;50.942;5.074;2023-03-31T13:01:12;14.60;99.90
18658;DHT22;9458;50.942;5.074;2023-03-31T13:03:52;14.60;99.90
18658;DHT22;9458;50.942;5.074;2023-03-31T13:06:55;14.70;99.90
18658;DHT22;9458;50.942;5.074;2023-03-31T13:09:46;14.60;99.90
18658;DHT22;9458;50.942;5.074;2023-03-31T13:12:19;14.50;99.90
18658;DHT22;9458;50.942;5.074;2023-03-31T13:14:49;14.50;99.90
18658;DHT22;9458;50.942;5.074;2023-03-31T13:17:26;14.50;99.90
18658;DHT22;9458;50.942;5.074;2023-03-31T13:20:14;14.50;99.90
18658;DHT22;9458;50.942;5.074;2023-03-31T13:22:44;14.50;99.90
18658;DHT22;9458;50.942;5.074;2023-03-31T13:25:39;14.50;99.90
18658;DHT22;9458;50.942;5.074;2023-03-31T13:28:23;14.30;99.90
18658;DHT22;9458;50.942;5.074;2023-03-31T13:30:53;14.30;99.90
18658;DHT22;9458;50.942;5.074;2023-03-31T13:33:26;14.30;99.90
18658;DHT22;9458;50.942;5.074;2023-03-31T13:36:17;14.20;99.90
18658;DHT22;9458;50.942;5.074;2023-03-31T13:38:56;14.20;99.90
18658;DHT22;9458;50.942;5.074;2023-03-31T13:41:36;14.30;99.90
18658;DHT22;9458;50.942;5.074;2023-03-31T13:47:47;14.40;99.90
18658;DHT22;9458;50.942;5.074;2023-03-31T13:53:56;14.40;99.90
18658;DHT22;9458;50.942;5.074;2023-03-31T13:57:01;14.30;99.90
18658;DHT22;9458;50.942;5.074;2023-03-31T14:05:44;14.20;99.90
18658;DHT22;9458;50.942;5.074;2023-03-31T14:08:32;14.30;99.90
18658;DHT22;9458;50.942;5.074;2023-03-31T14:11:19;14.30;99.90
18658;DHT22;9458;50.942;5.074;2023-03-31T14:14:01;14.40;99.90
18658;DHT22;9458;50.942;5.074;2023-03-31T14:16:33;14.40;99.90
18658;DHT22;9458;50.942;5.074;2023-03-31T14:22:01;14.30;99.90
18658;DHT22;9458;50.942;5.074;2023-03-31T14:24:36;14.30;99.90
18658;DHT22;9458;50.942;5.074;2023-03-31T14:27:13;14.30;99.90
18658;DHT22;9458;50.942;5.074;2023-03-31T14:29:48;14.20;99.90
18658;DHT22;9458;50.942;5.074;2023-03-31T14:32:24;14.20;99.90
18658;DHT22;9458;50.942;5.074;2023-03-31T14:35:04;14.20;99.90
18658;DHT22;9458;50.942;5.074;2023-03-31T14:37:37;14.10;99.90
18658;DHT22;9458;50.942;5.074;2023-03-31T14:40:08;14.10;99.90
18658;DHT22;9458;50.942;5.074;2023-03-31T14:42:42;14.10;99.90
18658;DHT22;9458;50.942;5.074;2023-03-31T14:45:17;14.00;99.90
18658;DHT22;9458;50.942;5.074;2023-03-31T14:47:55;14.00;99.90
18658;DHT22;9458;50.942;5.074;2023-03-31T14:50:28;13.90;99.90
18658;DHT22;9458;50.942;5.074;2023-03-31T14:52:59;13.80;99.90
18658;DHT22;9458;50.942;5.074;2023-03-31T14:55:28;13.80;99.90
18658;DHT22;9458;50.942;5.074;2023-03-31T14:57:59;13.80;99.90
18658;DHT22;9458;50.942;5.074;2023-03-31T15:00:30;13.80;99.90
18658;DHT22;9458;50.942;5.074;2023-03-31T15:03:01;13.80;99.90
18658;DHT22;9458;50.942;5.074;2023-03-31T15:05:31;13.90;99.90
18658;DHT22;9458;50.942;5.074;2023-03-31T15:08:04;13.90;99.90
18658;DHT22;9458;50.942;5.074;2023-03-31T15:10:36;13.80;99.90
18658;DHT22;9458;50.942;5.074;2023-03-31T15:13:07;13.80;99.90
18658;DHT22;9458;50.942;5.074;2023-03-31T15:15:38;13.70;99.90
18658;DHT22;9458;50.942;5.074;2023-03-31T15:18:08;13.70;99.90
18658;DHT22;9458;50.942;5.074;2023-03-31T15:20:40;13.70;99.90
18658;DHT22;9458;50.942;5.074;2023-03-31T15:23:20;13.60;99.90
18658;DHT22;9458;50.942;5.074;2023-03-31T15:25:52;13.60;99.90
18658;DHT22;9458;50.942;5.074;2023-03-31T15:28:25;13.50;99.90
18658;DHT22;9458;50.942;5.074;2023-03-31T15:30:55;13.50;99.90
18658;DHT22;9458;50.942;5.074;2023-03-31T15:33:27;13.50;99.90
18658;DHT22;9458;50.942;5.074;2023-03-31T15:35:57;13.40;99.90
18658;DHT22;9458;50.942;5.074;2023-03-31T15:38:30;13.40;99.90
18658;DHT22;9458;50.942;5.074;2023-03-31T15:41:01;13.30;99.90
18658;DHT22;9458;50.942;5.074;2023-03-31T15:43:30;13.30;99.90
18658;DHT22;9458;50.942;5.074;2023-03-31T15:45:59;13.30;99.90
18658;DHT22;9458;50.942;5.074;2023-03-31T15:48:29;13.30;99.90
18658;DHT22;9458;50.942;5.074;2023-03-31T15:51:01;13.30;99.90
18658;DHT22;9458;50.942;5.074;2023-03-31T15:53:35;13.30;99.90
18658;DHT22;9458;50.942;5.074;2023-03-31T15:56:05;13.30;99.90
18658;DHT22;9458;50.942;5.074;2023-03-31T15:58:54;13.30;99.90
18658;DHT22;9458;50.942;5.074;2023-03-31T16:01:26;13.30;99.90
18658;DHT22;9458;50.942;5.074;2023-03-31T16:03:59;13.30;99.90
18658;DHT22;9458;50.942;5.074;2023-03-31T16:06:42;13.30;99.90
18658;DHT22;9458;50.942;5.074;2023-03-31T16:12:14;13.20;99.90
18658;DHT22;9458;50.942;5.074;2023-03-31T16:14:49;13.20;99.90
18658;DHT22;9458;50.942;5.074;2023-03-31T16:17:22;13.10;99.90
18658;DHT22;9458;50.942;5.074;2023-03-31T16:19:56;13.10;99.90
18658;DHT22;9458;50.942;5.074;2023-03-31T16:22:30;13.00;99.90
18658;DHT22;9458;50.942;5.074;2023-03-31T16:24:59;13.00;99.90
18658;DHT22;9458;50.942;5.074;2023-03-31T16:27:29;13.00;99.90
18658;DHT22;9458;50.942;5.074;2023-03-31T16:30:09;13.00;99.90
18658;DHT22;9458;50.942;5.074;2023-03-31T16:32:37;13.00;99.90
18658;DHT22;9458;50.942;5.074;2023-03-31T16:35:05;13.00;99.90
18658;DHT22;9458;50.942;5.074;2023-03-31T16:37:33;13.00;99.90
18658;DHT22;9458;50.942;5.074;2023-03-31T16:40:01;13.00;99.90
18658;DHT22;9458;50.942;5.074;2023-03-31T16:42:34;12.90;99.90
18658;DHT22;9458;50.942;5.074;2023-03-31T16:45:03;12.90;99.90
18658;DHT22;9458;50.942;5.074;2023-03-31T16:47:30;12.90;99.90
18658;DHT22;9458;50.942;5.074;2023-03-31T16:49:58;12.90;99.90
18658;DHT22;9458;50.942;5.074;2023-03-31T16:52:27;12.90;99.90
18658;DHT22;9458;50.942;5.074;2023-03-31T16:54:55;12.80;99.90